createdAt,value
2023-04-07T00:00:52.238Z,7.95
2023-04-07T00:01:55.751Z,7.95
2023-04-07T00:02:59.870Z,7.92
2023-04-07T00:04:03.749Z,7.85
2023-04-07T00:05:08.155Z,7.82
2023-04-07T00:06:11.846Z,7.93
2023-04-07T00:07:15.350Z,8.04
2023-04-07T00:08:20.452Z,8.06
2023-04-07T00:09:24.932Z,8.10
2023-04-07T00:10:27.642Z,8.19
2023-04-07T00:11:33.531Z,8.19
2023-04-07T00:12:37.742Z,8.13
2023-04-07T00:13:42.047Z,7.98
2023-04-07T00:14:46.663Z,7.90
2023-04-07T00:15:50.170Z,7.85
2023-04-07T00:16:53.787Z,7.82
2023-04-07T00:17:57.447Z,7.81
2023-04-07T00:19:01.840Z,7.70
2023-04-07T00:20:04.829Z,7.80
2023-04-07T00:21:08.583Z,7.86
2023-04-07T00:22:11.993Z,7.85
2023-04-07T00:23:15.236Z,7.91
2023-04-07T00:24:31.153Z,7.93
2023-04-07T00:25:25.810Z,7.89
2023-04-07T00:26:32.117Z,7.74
2023-04-07T00:27:38.236Z,7.73
2023-04-07T00:28:44.482Z,7.70
2023-04-07T00:29:48.349Z,7.68
2023-04-07T00:30:51.589Z,7.65
2023-04-07T00:31:55.389Z,7.62
2023-04-07T00:32:59.304Z,7.58
2023-04-07T00:34:03.018Z,7.59
2023-04-07T00:35:09.810Z,7.63
2023-04-07T00:36:14.133Z,7.71
2023-04-07T00:37:18.244Z,7.76
2023-04-07T00:38:21.465Z,7.66
2023-04-07T00:39:27.024Z,7.56
2023-04-07T00:40:31.252Z,7.59
2023-04-07T00:41:35.008Z,7.56
2023-04-07T00:42:39.456Z,7.60
2023-04-07T00:43:46.579Z,7.71
2023-04-07T00:44:49.657Z,7.72
2023-04-07T00:45:53.491Z,7.65
2023-04-07T00:46:58.076Z,7.57
2023-04-07T00:48:00.357Z,7.61
2023-04-07T00:49:04.046Z,7.55
2023-04-07T00:50:08.305Z,7.47
2023-04-07T00:51:11.062Z,7.33
2023-04-07T00:52:15.150Z,7.38
2023-04-07T00:53:19.979Z,7.44
2023-04-07T00:54:30.680Z,7.39
2023-04-07T00:55:36.693Z,7.36
2023-04-07T00:56:41.896Z,7.32
2023-04-07T00:57:48.241Z,7.33
2023-04-07T00:58:51.506Z,7.48
2023-04-07T00:59:56.702Z,7.60
2023-04-07T01:01:02.047Z,7.68
2023-04-07T01:02:13.138Z,7.71
2023-04-07T01:03:21.148Z,7.72
2023-04-07T01:04:31.474Z,7.70
2023-04-07T01:05:48.293Z,7.65
2023-04-07T01:06:53.433Z,7.43
2023-04-07T01:08:05.140Z,7.49
2023-04-07T01:09:13.644Z,7.60
2023-04-07T01:10:19.753Z,7.47
2023-04-07T01:11:42.727Z,7.57
2023-04-07T01:12:53.347Z,7.64
2023-04-07T01:14:01.153Z,7.56
2023-04-07T01:15:13.752Z,7.55
2023-04-07T01:16:38.039Z,7.56
2023-04-07T01:17:42.686Z,7.38
2023-04-07T01:18:47.838Z,7.24
2023-04-07T01:19:55.647Z,7.22
2023-04-07T01:21:03.381Z,7.11
2023-04-07T01:22:09.688Z,7.06
2023-04-07T01:23:15.793Z,7.11
2023-04-07T01:24:23.299Z,7.17
2023-04-07T01:25:45.409Z,7.21
2023-04-07T01:26:49.807Z,7.28
2023-04-07T01:27:54.811Z,7.22
2023-04-07T01:29:05.348Z,7.14
2023-04-07T01:30:10.205Z,7.35
2023-04-07T01:31:14.628Z,7.36
2023-04-07T01:32:20.817Z,7.40
2023-04-07T01:33:25.602Z,7.42
2023-04-07T01:34:31.870Z,7.45
2023-04-07T01:35:37.533Z,7.38
2023-04-07T01:36:46.412Z,7.41
2023-04-07T01:37:49.958Z,7.34
2023-04-07T01:38:56.000Z,7.39
2023-04-07T01:39:59.135Z,7.26
2023-04-07T01:41:02.676Z,7.36
2023-04-07T01:42:06.368Z,7.31
2023-04-07T01:43:10.224Z,7.29
2023-04-07T01:44:13.466Z,7.39
2023-04-07T01:45:17.629Z,7.44
2023-04-07T01:46:20.835Z,7.43
2023-04-07T01:47:24.312Z,7.46
2023-04-07T01:48:28.994Z,7.35
2023-04-07T01:49:33.796Z,7.14
2023-04-07T01:50:40.372Z,7.19
2023-04-07T01:51:45.415Z,7.20
2023-04-07T01:52:49.614Z,7.31
2023-04-07T01:53:53.366Z,7.23
2023-04-07T01:54:58.189Z,7.24
2023-04-07T01:56:02.241Z,7.28
2023-04-07T01:57:05.777Z,7.33
2023-04-07T01:58:09.057Z,7.46
2023-04-07T01:59:14.396Z,7.44
2023-04-07T02:00:18.919Z,7.55
2023-04-07T02:01:24.089Z,7.55
2023-04-07T02:02:27.241Z,7.48
2023-04-07T02:03:33.632Z,7.48
2023-04-07T02:04:49.839Z,7.27
2023-04-07T02:05:53.951Z,7.18
2023-04-07T02:07:01.542Z,7.22
2023-04-07T02:08:08.623Z,7.18
2023-04-07T02:09:11.653Z,7.24
2023-04-07T02:10:15.862Z,7.33
2023-04-07T02:11:21.170Z,7.38
2023-04-07T02:12:27.450Z,7.35
2023-04-07T02:13:36.637Z,7.41
2023-04-07T02:14:40.172Z,7.47
2023-04-07T02:15:48.039Z,7.44
2023-04-07T02:16:54.317Z,7.21
2023-04-07T02:17:58.458Z,7.24
2023-04-07T02:19:04.662Z,7.25
2023-04-07T02:20:08.210Z,7.20
2023-04-07T02:21:14.859Z,7.22
2023-04-07T02:22:20.232Z,7.09
2023-04-07T02:23:23.880Z,7.06
2023-04-07T02:24:27.086Z,7.08
2023-04-07T02:25:30.978Z,7.18
2023-04-07T02:26:35.642Z,7.06
2023-04-07T02:27:38.896Z,7.15
2023-04-07T02:28:41.365Z,7.16
2023-04-07T02:29:45.596Z,7.16
2023-04-07T02:30:48.444Z,7.19
2023-04-07T02:31:50.941Z,7.22
2023-04-07T02:32:54.504Z,6.89
2023-04-07T02:33:58.071Z,6.82
2023-04-07T02:35:01.255Z,6.84
2023-04-07T02:36:08.735Z,6.89
2023-04-07T02:37:15.153Z,6.95
2023-04-07T02:38:18.378Z,6.98
2023-04-07T02:39:23.434Z,7.06
2023-04-07T02:40:27.026Z,6.95
2023-04-07T02:41:30.224Z,7.03
2023-04-07T02:42:33.567Z,7.08
2023-04-07T02:43:35.798Z,7.00
2023-04-07T02:44:41.869Z,6.91
2023-04-07T02:45:45.805Z,6.77
2023-04-07T02:46:49.133Z,6.90
2023-04-07T02:47:52.875Z,6.92
2023-04-07T02:48:55.759Z,7.01
2023-04-07T02:49:58.065Z,6.97
2023-04-07T02:51:01.761Z,6.88
2023-04-07T02:52:04.766Z,6.92
2023-04-07T02:53:06.970Z,6.96
2023-04-07T02:54:12.218Z,7.01
2023-04-07T02:55:15.092Z,7.03
2023-04-07T02:56:19.327Z,7.04
2023-04-07T02:57:21.934Z,7.01
2023-04-07T02:58:26.140Z,7.06
2023-04-07T02:59:30.912Z,7.09
2023-04-07T03:00:34.556Z,7.07
2023-04-07T03:01:41.744Z,7.11
2023-04-07T03:02:45.411Z,7.06
2023-04-07T03:03:49.354Z,7.06
2023-04-07T03:04:54.391Z,7.04
2023-04-07T03:05:58.065Z,7.10
2023-04-07T03:07:02.431Z,7.09
2023-04-07T03:08:07.216Z,7.15
2023-04-07T03:09:10.582Z,7.12
2023-04-07T03:10:14.049Z,7.04
2023-04-07T03:11:17.339Z,6.99
2023-04-07T03:12:20.247Z,7.01
2023-04-07T03:13:24.893Z,6.85
2023-04-07T03:14:28.387Z,6.92
2023-04-07T03:15:30.936Z,6.77
2023-04-07T03:16:33.495Z,6.83
2023-04-07T03:17:41.429Z,6.87
2023-04-07T03:18:44.005Z,6.86
2023-04-07T03:19:48.286Z,6.89
2023-04-07T03:20:56.542Z,6.85
2023-04-07T03:21:59.663Z,6.86
2023-04-07T03:23:02.733Z,6.92
2023-04-07T03:24:08.132Z,6.91
2023-04-07T03:25:11.460Z,6.90
2023-04-07T03:26:20.162Z,6.86
2023-04-07T03:27:23.368Z,6.86
2023-04-07T03:28:27.806Z,6.83
2023-04-07T03:29:31.657Z,6.78
2023-04-07T03:30:37.708Z,6.73
2023-04-07T03:31:41.364Z,6.76
2023-04-07T03:32:48.329Z,6.75
2023-04-07T03:33:51.798Z,6.69
2023-04-07T03:34:55.671Z,6.69
2023-04-07T03:35:59.928Z,6.72
2023-04-07T03:37:02.940Z,6.74
2023-04-07T03:38:07.316Z,6.77
2023-04-07T03:39:12.312Z,6.79
2023-04-07T03:40:15.748Z,6.77
2023-04-07T03:41:19.009Z,6.75
2023-04-07T03:42:23.667Z,6.76
2023-04-07T03:43:28.724Z,6.70
2023-04-07T03:44:31.447Z,6.78
2023-04-07T03:45:37.770Z,6.76
2023-04-07T03:46:43.040Z,6.77
2023-04-07T03:47:46.802Z,6.76
2023-04-07T03:48:50.125Z,6.83
2023-04-07T03:49:53.393Z,6.80
2023-04-07T03:50:57.230Z,6.78
2023-04-07T03:52:00.447Z,6.78
2023-04-07T03:53:03.309Z,6.78
2023-04-07T03:54:07.335Z,6.80
2023-04-07T03:55:12.649Z,6.85
2023-04-07T03:56:17.383Z,6.85
2023-04-07T03:57:25.500Z,6.85
2023-04-07T03:58:29.329Z,6.83
2023-04-07T03:59:33.333Z,6.80
2023-04-07T04:00:38.443Z,6.80
2023-04-07T04:01:45.768Z,6.84
2023-04-07T04:02:50.176Z,7.01
2023-04-07T04:03:56.035Z,7.15
2023-04-07T04:05:01.585Z,7.14
2023-04-07T04:06:05.096Z,7.16
2023-04-07T04:07:08.332Z,7.10
2023-04-07T04:08:13.724Z,7.09
2023-04-07T04:09:20.313Z,7.13
2023-04-07T04:10:24.620Z,7.10
2023-04-07T04:11:29.098Z,7.14
2023-04-07T04:12:35.038Z,7.22
2023-04-07T04:13:41.148Z,7.15
2023-04-07T04:14:45.013Z,7.15
2023-04-07T04:15:49.385Z,7.13
2023-04-07T04:16:56.669Z,6.95
2023-04-07T04:18:04.207Z,7.17
2023-04-07T04:19:08.046Z,7.02
2023-04-07T04:20:11.922Z,7.07
2023-04-07T04:21:17.268Z,7.28
2023-04-07T04:22:19.713Z,7.33
2023-04-07T04:23:24.180Z,7.33
2023-04-07T04:24:28.097Z,7.57
2023-04-07T04:25:34.635Z,7.70
2023-04-07T04:26:38.601Z,7.68
2023-04-07T04:27:43.843Z,7.65
2023-04-07T04:28:48.947Z,7.68
2023-04-07T04:29:52.651Z,7.72
2023-04-07T04:30:57.748Z,7.80
2023-04-07T04:32:01.375Z,7.85
2023-04-07T04:33:06.391Z,7.82
2023-04-07T04:34:23.570Z,7.82
2023-04-07T04:35:27.067Z,7.97
2023-04-07T04:36:45.060Z,8.09
2023-04-07T04:37:48.755Z,8.01
2023-04-07T04:38:52.477Z,8.01
2023-04-07T04:40:01.245Z,8.06
2023-04-07T04:41:06.892Z,8.09
2023-04-07T04:42:09.714Z,8.10
2023-04-07T04:43:13.070Z,8.28
2023-04-07T04:44:17.958Z,8.37
2023-04-07T04:45:20.306Z,8.20
2023-04-07T04:46:27.824Z,8.26
2023-04-07T04:47:32.528Z,8.33
2023-04-07T04:48:36.366Z,8.43
2023-04-07T04:49:40.740Z,8.45
2023-04-07T04:50:45.177Z,8.50
2023-04-07T04:51:49.433Z,8.36
2023-04-07T04:52:53.408Z,8.25
2023-04-07T04:53:58.763Z,8.33
2023-04-07T04:55:02.109Z,8.32
2023-04-07T04:56:05.251Z,8.52
2023-04-07T04:57:16.743Z,8.49
2023-04-07T04:58:20.245Z,8.66
2023-04-07T04:59:27.414Z,9.02
2023-04-07T05:00:40.930Z,9.46
2023-04-07T05:01:44.988Z,10.09
2023-04-07T05:02:53.153Z,10.73
2023-04-07T05:03:57.021Z,11.34
2023-04-07T05:05:02.551Z,12.18
2023-04-07T05:06:05.434Z,12.71
2023-04-07T05:07:09.111Z,13.28
2023-04-07T05:08:12.652Z,13.58
2023-04-07T05:09:17.058Z,13.63
2023-04-07T05:10:25.831Z,13.65
2023-04-07T05:11:28.340Z,13.78
2023-04-07T05:12:33.466Z,13.70
2023-04-07T05:13:37.875Z,13.71
2023-04-07T05:14:41.278Z,13.62
2023-04-07T05:15:44.800Z,13.93
2023-04-07T05:16:49.382Z,14.13
2023-04-07T05:17:54.300Z,14.64
2023-04-07T05:19:01.646Z,14.94
2023-04-07T05:20:05.035Z,15.14
2023-04-07T05:21:10.063Z,14.94
2023-04-07T05:22:13.560Z,14.99
2023-04-07T05:23:18.567Z,15.54
2023-04-07T05:24:23.549Z,15.91
2023-04-07T05:25:28.600Z,16.17
2023-04-07T05:26:33.849Z,15.53
2023-04-07T05:27:39.388Z,15.43
2023-04-07T05:28:44.404Z,14.84
2023-04-07T05:29:49.972Z,13.52
2023-04-07T05:30:55.254Z,13.53
2023-04-07T05:32:03.934Z,13.63
2023-04-07T05:33:08.547Z,13.70
2023-04-07T05:34:16.892Z,13.17
2023-04-07T05:35:21.784Z,13.21
2023-04-07T05:36:31.086Z,13.61
2023-04-07T05:37:34.476Z,14.05
2023-04-07T05:38:39.591Z,13.86
2023-04-07T05:39:44.877Z,13.76
2023-04-07T05:40:52.080Z,13.86
2023-04-07T05:41:58.175Z,13.95
2023-04-07T05:43:02.947Z,14.38
2023-04-07T05:44:07.710Z,14.22
2023-04-07T05:45:12.006Z,15.10
2023-04-07T05:46:16.409Z,15.20
2023-04-07T05:47:24.107Z,14.72
2023-04-07T05:48:27.600Z,13.54
2023-04-07T05:49:30.430Z,12.99
2023-04-07T05:50:37.448Z,12.52
2023-04-07T05:51:42.353Z,12.09
2023-04-07T05:52:46.720Z,12.64
2023-04-07T05:53:55.737Z,12.82
2023-04-07T05:55:00.515Z,13.75
2023-04-07T05:56:05.275Z,14.93
2023-04-07T05:57:24.373Z,15.91
2023-04-07T05:58:28.860Z,15.90
2023-04-07T05:59:31.592Z,15.72
2023-04-07T06:00:37.619Z,15.46
2023-04-07T06:01:43.670Z,15.86
2023-04-07T06:02:47.494Z,16.57
2023-04-07T06:03:52.696Z,16.65
2023-04-07T06:04:58.016Z,16.80
2023-04-07T06:06:02.346Z,15.78
2023-04-07T06:07:05.944Z,15.21
2023-04-07T06:08:09.581Z,14.61
2023-04-07T06:09:12.941Z,14.12
2023-04-07T06:10:16.747Z,14.22
2023-04-07T06:11:20.066Z,13.95
2023-04-07T06:12:23.518Z,14.21
2023-04-07T06:13:29.226Z,15.11
2023-04-07T06:14:32.387Z,15.57
2023-04-07T06:15:36.610Z,15.58
2023-04-07T06:16:39.589Z,15.94
2023-04-07T06:17:46.193Z,15.89
2023-04-07T06:18:50.327Z,15.60
2023-04-07T06:19:52.610Z,15.49
2023-04-07T06:20:56.048Z,15.70
2023-04-07T06:22:01.230Z,15.99
2023-04-07T06:47:36.694Z,20.85
2023-04-07T06:48:40.410Z,21.06
2023-04-07T06:49:43.453Z,20.69
2023-04-07T06:50:53.068Z,21.16
2023-04-07T06:51:56.440Z,21.99
2023-04-07T06:52:59.856Z,22.11
2023-04-07T06:54:02.508Z,22.41
2023-04-07T06:55:06.129Z,22.91
2023-04-07T06:56:11.032Z,23.12
2023-04-07T06:57:14.445Z,23.57
2023-04-07T06:58:17.664Z,24.47
2023-04-07T06:59:22.214Z,24.64
2023-04-07T07:00:24.583Z,24.39
2023-04-07T07:01:28.158Z,24.40
2023-04-07T07:02:31.399Z,23.96
2023-04-07T07:03:35.098Z,23.65
2023-04-07T07:04:41.081Z,23.17
2023-04-07T07:05:44.383Z,22.78
2023-04-07T07:06:47.237Z,22.77
2023-04-07T07:07:50.976Z,23.69
2023-04-07T07:08:53.858Z,24.56
2023-04-07T07:09:57.717Z,24.73
2023-04-07T07:11:01.198Z,24.97
2023-04-07T07:12:04.397Z,25.33
2023-04-07T07:13:07.924Z,25.42
2023-04-07T07:14:11.337Z,25.38
2023-04-07T07:15:17.626Z,24.67
2023-04-07T07:16:21.244Z,24.50
2023-04-07T07:17:24.825Z,25.11
2023-04-07T07:18:27.093Z,25.63
2023-04-07T07:19:29.690Z,25.54
2023-04-07T07:20:32.995Z,24.25
2023-04-07T07:21:35.507Z,24.26
2023-04-07T07:22:37.903Z,25.13
2023-04-07T07:23:42.825Z,25.23
2023-04-07T07:24:46.427Z,23.71
2023-04-07T07:25:49.671Z,22.93
2023-04-07T07:26:52.259Z,23.40
2023-04-07T07:27:55.162Z,23.44
2023-04-07T07:28:58.221Z,23.47
2023-04-07T07:30:01.561Z,23.92
2023-04-07T07:31:06.847Z,24.13
2023-04-07T07:32:09.966Z,23.17
2023-04-07T07:33:12.199Z,22.67
2023-04-07T07:34:14.471Z,22.40
2023-04-07T07:35:19.018Z,22.62
2023-04-07T07:36:22.585Z,22.76
2023-04-07T07:37:26.616Z,23.85
2023-04-07T07:38:31.111Z,24.55
2023-04-07T07:39:34.561Z,23.95
2023-04-07T07:40:37.192Z,24.67
2023-04-07T07:41:43.671Z,25.04
2023-04-07T07:42:48.768Z,24.95
2023-04-07T07:43:51.999Z,24.10
2023-04-07T07:44:56.285Z,22.97
2023-04-07T07:46:00.798Z,24.00
2023-04-07T07:47:04.583Z,24.72
2023-04-07T07:48:07.684Z,24.40
2023-04-07T07:49:11.940Z,23.82
2023-04-07T07:50:15.340Z,24.52
2023-04-07T07:51:18.521Z,25.37
2023-04-07T07:52:22.025Z,24.99
2023-04-07T07:53:27.320Z,25.00
2023-04-07T07:54:30.639Z,24.62
2023-04-07T07:55:35.458Z,24.62
2023-04-07T07:56:38.833Z,24.53
2023-04-07T07:57:41.916Z,24.19
2023-04-07T07:58:45.039Z,24.57
2023-04-07T07:59:48.973Z,24.91
2023-04-07T08:00:52.014Z,25.02
2023-04-07T08:01:55.414Z,25.26
2023-04-07T08:02:58.524Z,24.89
2023-04-07T08:04:01.525Z,24.72
2023-04-07T08:05:08.058Z,24.71
2023-04-07T08:06:13.210Z,24.71
2023-04-07T08:07:21.165Z,23.86
2023-04-07T08:08:24.924Z,23.96
2023-04-07T08:09:28.138Z,24.19
2023-04-07T08:10:34.105Z,24.15
2023-04-07T08:11:36.382Z,24.06
2023-04-07T08:12:39.115Z,22.58
2023-04-07T08:13:43.188Z,22.73
2023-04-07T08:14:46.488Z,22.27
2023-04-07T08:17:04.451Z,22.12
2023-04-07T08:18:07.869Z,21.86
2023-04-07T08:19:11.726Z,21.30
2023-04-07T08:20:18.090Z,21.89
2023-04-07T08:21:20.654Z,21.99
2023-04-07T08:22:22.911Z,22.64
2023-04-07T08:23:26.630Z,22.23
2023-04-07T08:24:31.809Z,22.06
2023-04-07T08:25:34.592Z,21.72
2023-04-07T08:26:38.397Z,21.54
2023-04-07T08:27:41.610Z,21.62
2023-04-07T08:28:45.201Z,21.40
2023-04-07T08:29:50.364Z,21.23
2023-04-07T08:30:53.782Z,20.73
2023-04-07T08:31:56.591Z,19.34
2023-04-07T08:32:59.367Z,18.58
2023-04-07T08:34:01.889Z,18.39
2023-04-07T08:35:05.785Z,18.16
2023-04-07T08:36:11.104Z,18.18
2023-04-07T08:37:14.699Z,18.60
2023-04-07T08:38:18.189Z,19.13
2023-04-07T08:39:25.692Z,19.17
2023-04-07T08:40:31.590Z,18.85
2023-04-07T08:41:36.866Z,18.83
2023-04-07T08:42:42.791Z,18.33
2023-04-07T08:43:50.864Z,18.71
2023-04-07T08:44:57.200Z,18.45
2023-04-07T08:46:02.378Z,18.52
2023-04-07T08:47:08.373Z,18.31
2023-04-07T08:48:13.562Z,17.94
2023-04-07T08:49:18.113Z,18.05
2023-04-07T08:50:22.491Z,18.68
2023-04-07T08:51:29.070Z,18.72
2023-04-07T08:52:38.385Z,18.77
2023-04-07T08:53:42.810Z,18.87
2023-04-07T08:54:46.298Z,18.09
2023-04-07T08:55:49.815Z,18.00
2023-04-07T08:56:53.722Z,17.54
2023-04-07T08:57:56.690Z,17.54
2023-04-07T08:59:01.134Z,17.84
2023-04-07T09:00:07.849Z,18.12
2023-04-07T09:01:11.848Z,18.20
2023-04-07T09:02:16.372Z,17.98
2023-04-07T09:03:19.229Z,17.32
2023-04-07T09:04:22.816Z,17.19
2023-04-07T09:05:26.591Z,17.85
2023-04-07T09:06:32.476Z,18.29
2023-04-07T09:07:36.624Z,18.24
2023-04-07T09:08:40.315Z,18.65
2023-04-07T09:09:43.705Z,18.67
2023-04-07T09:10:47.756Z,18.82
2023-04-07T09:11:50.934Z,18.66
2023-04-07T09:12:54.322Z,18.87
2023-04-07T09:13:57.647Z,18.40
2023-04-07T09:15:01.546Z,18.01
2023-04-07T09:16:06.097Z,17.80
2023-04-07T09:17:09.368Z,17.92
2023-04-07T09:18:16.664Z,17.57
2023-04-07T09:19:20.272Z,17.64
2023-04-07T09:20:25.165Z,17.57
2023-04-07T09:21:50.571Z,17.16
2023-04-07T09:22:54.593Z,17.45
2023-04-07T09:23:58.056Z,17.57
2023-04-07T09:25:10.383Z,17.40
2023-04-07T09:26:22.056Z,16.91
2023-04-07T09:27:24.278Z,16.63
2023-04-07T09:28:43.270Z,16.88
2023-04-07T09:29:48.327Z,17.19
2023-04-07T09:30:54.232Z,17.29
2023-04-07T09:31:58.591Z,17.08
2023-04-07T09:33:02.467Z,17.22
2023-04-07T09:34:08.084Z,17.20
2023-04-07T09:35:11.696Z,17.31
2023-04-07T09:36:14.726Z,17.04
2023-04-07T09:37:20.063Z,16.48
2023-04-07T09:38:23.680Z,16.85
2023-04-07T09:39:27.494Z,17.24
2023-04-07T09:40:30.706Z,17.39
2023-04-07T09:41:35.582Z,17.81
2023-04-07T09:42:45.823Z,17.36
2023-04-07T09:43:48.570Z,17.05
2023-04-07T09:44:52.372Z,17.45
2023-04-07T09:45:57.661Z,16.71
2023-04-07T09:47:00.381Z,16.60
2023-04-07T09:48:05.982Z,16.54
2023-04-07T09:49:09.912Z,15.94
2023-04-07T09:50:14.104Z,16.35
2023-04-07T09:51:18.479Z,16.55
2023-04-07T09:52:33.384Z,16.45
2023-04-07T09:53:44.388Z,16.82
2023-04-07T09:54:49.780Z,17.28
2023-04-07T09:55:55.070Z,17.26
2023-04-07T09:57:00.329Z,16.96
2023-04-07T09:58:05.202Z,16.38
2023-04-07T09:59:09.777Z,16.75
2023-04-07T10:00:15.241Z,16.90
2023-04-07T10:01:18.771Z,17.17
2023-04-07T10:02:23.788Z,16.93
2023-04-07T10:03:27.457Z,16.86
2023-04-07T10:04:30.783Z,17.08
2023-04-07T10:05:35.896Z,17.07
2023-04-07T10:06:40.137Z,17.30
2023-04-07T10:07:45.767Z,17.34
2023-04-07T10:08:49.144Z,17.78
2023-04-07T10:09:52.009Z,17.38
2023-04-07T10:10:57.070Z,17.68
2023-04-07T10:11:59.755Z,18.07
2023-04-07T10:13:04.934Z,17.96
2023-04-07T10:14:12.130Z,17.58
2023-04-07T10:15:16.680Z,18.18
2023-04-07T10:16:20.437Z,18.33
2023-04-07T10:17:26.032Z,18.52
2023-04-07T10:18:33.523Z,18.49
2023-04-07T10:19:37.027Z,18.20
2023-04-07T10:20:44.923Z,17.80
2023-04-07T10:22:02.126Z,17.85
2023-04-07T10:23:08.753Z,17.22
2023-04-07T10:24:17.170Z,17.09
2023-04-07T10:25:21.843Z,17.35
2023-04-07T10:26:26.154Z,17.22
2023-04-07T10:27:34.395Z,16.60
2023-04-07T10:28:39.745Z,16.65
2023-04-07T10:29:43.882Z,16.59
2023-04-07T10:30:48.427Z,16.78
2023-04-07T10:31:53.694Z,16.70
2023-04-07T10:32:57.662Z,16.59
2023-04-07T10:34:03.232Z,16.48
2023-04-07T10:35:06.215Z,16.65
2023-04-07T10:36:09.839Z,16.02
2023-04-07T10:37:14.812Z,16.21
2023-04-07T10:38:18.564Z,16.34
2023-04-07T10:39:21.169Z,16.48
2023-04-07T10:40:27.376Z,16.67
2023-04-07T10:41:38.412Z,16.50
2023-04-07T10:42:44.660Z,16.44
2023-04-07T10:43:48.237Z,16.31
2023-04-07T10:44:57.712Z,16.70
2023-04-07T10:46:01.151Z,16.80
2023-04-07T10:47:07.230Z,16.82
2023-04-07T10:48:11.226Z,16.82
2023-04-07T10:49:16.265Z,16.94
2023-04-07T10:50:22.529Z,17.18
2023-04-07T10:51:25.524Z,17.03
2023-04-07T10:52:29.024Z,16.81
2023-04-07T10:53:34.619Z,16.81
2023-04-07T10:54:38.125Z,16.87
2023-04-07T10:55:43.293Z,16.79
2023-04-07T10:57:08.426Z,16.80
2023-04-07T10:58:22.620Z,16.80
2023-04-07T10:59:27.434Z,16.39
2023-04-07T11:00:31.796Z,16.28
2023-04-07T11:01:35.390Z,16.06
2023-04-07T11:02:40.832Z,15.77
2023-04-07T11:03:55.138Z,15.85
2023-04-07T11:04:58.406Z,15.72
2023-04-07T11:06:09.064Z,15.11
2023-04-07T11:07:14.244Z,14.96
2023-04-07T11:08:18.670Z,14.96
2023-04-07T11:09:21.659Z,15.08
2023-04-07T11:10:25.512Z,15.32
2023-04-07T11:11:43.109Z,15.13
2023-04-07T11:12:48.665Z,14.88
2023-04-07T11:13:53.228Z,15.06
2023-04-07T11:15:00.132Z,15.24
2023-04-07T11:16:02.876Z,14.90
2023-04-07T11:17:07.608Z,14.92
2023-04-07T11:18:12.770Z,15.16
2023-04-07T11:19:15.140Z,15.18
2023-04-07T11:20:18.842Z,15.05
2023-04-07T11:21:22.342Z,15.10
2023-04-07T11:22:30.445Z,15.34
2023-04-07T11:23:30.505Z,15.70
2023-04-07T11:24:40.873Z,16.04
2023-04-07T11:25:47.244Z,15.88
2023-04-07T11:26:51.265Z,15.90
2023-04-07T11:27:55.918Z,16.04
2023-04-07T11:28:59.947Z,16.29
2023-04-07T11:30:07.171Z,15.91
2023-04-07T11:31:10.903Z,15.78
2023-04-07T11:32:14.434Z,15.77
2023-04-07T11:33:19.918Z,15.60
2023-04-07T11:34:25.352Z,15.55
2023-04-07T11:35:29.179Z,15.27
2023-04-07T11:36:37.294Z,15.46
2023-04-07T11:37:40.623Z,15.88
2023-04-07T11:38:45.446Z,16.21
2023-04-07T11:39:54.650Z,16.41
2023-04-07T11:41:01.167Z,16.17
2023-04-07T11:42:04.670Z,16.26
2023-04-07T11:43:18.830Z,16.25
2023-04-07T11:44:29.176Z,16.46
2023-04-07T11:45:31.590Z,16.40
2023-04-07T11:46:36.221Z,16.31
2023-04-07T11:47:40.630Z,16.41
2023-04-07T11:48:45.132Z,16.25
2023-04-07T11:49:50.751Z,16.33
2023-04-07T11:50:55.396Z,16.05
2023-04-07T11:52:00.150Z,15.78
2023-04-07T11:53:02.898Z,15.57
2023-04-07T11:54:12.603Z,15.57
2023-04-07T11:55:22.081Z,15.96
2023-04-07T11:56:27.142Z,16.07
2023-04-07T11:57:30.820Z,15.84
2023-04-07T11:58:34.109Z,15.69
2023-04-07T11:59:36.996Z,15.62
2023-04-07T12:01:02.085Z,15.56
2023-04-07T12:02:09.410Z,15.58
2023-04-07T12:03:17.084Z,15.51
2023-04-07T12:04:20.108Z,15.23
2023-04-07T12:05:25.959Z,15.38
2023-04-07T12:06:30.817Z,15.44
2023-04-07T12:07:34.743Z,15.00
2023-04-07T12:08:40.223Z,14.78
2023-04-07T12:09:43.503Z,15.12
2023-04-07T12:10:46.723Z,15.52
2023-04-07T12:11:50.961Z,15.75
2023-04-07T12:12:55.263Z,15.79
2023-04-07T12:13:58.941Z,15.27
2023-04-07T12:15:02.770Z,15.32
2023-04-07T12:16:07.886Z,15.41
2023-04-07T12:17:12.857Z,15.47
2023-04-07T12:18:15.814Z,15.52
2023-04-07T12:19:19.985Z,15.69
2023-04-07T12:20:23.267Z,15.60
2023-04-07T12:21:26.462Z,15.48
2023-04-07T12:22:30.496Z,15.45
2023-04-07T12:23:33.745Z,15.73
2023-04-07T12:24:37.288Z,15.76
2023-04-07T12:25:40.904Z,15.44
2023-04-07T12:26:44.412Z,15.44
2023-04-07T12:27:48.547Z,15.66
2023-04-07T12:28:52.050Z,15.87
2023-04-07T12:29:55.349Z,15.66
2023-04-07T12:30:58.536Z,15.66
2023-04-07T12:32:03.122Z,15.85
2023-04-07T12:33:06.561Z,16.21
2023-04-07T12:34:11.258Z,16.33
2023-04-07T12:35:15.497Z,16.16
2023-04-07T12:36:18.658Z,16.02
2023-04-07T12:37:20.767Z,16.29
2023-04-07T12:38:27.634Z,16.37
2023-04-07T12:39:30.874Z,16.36
2023-04-07T12:40:38.151Z,16.36
2023-04-07T12:41:41.845Z,16.25
2023-04-07T12:42:45.224Z,16.56
2023-04-07T12:43:48.516Z,16.77
2023-04-07T12:44:52.564Z,16.92
2023-04-07T12:45:56.334Z,16.96
2023-04-07T12:47:00.186Z,16.72
2023-04-07T12:48:03.842Z,16.48
2023-04-07T12:49:06.269Z,16.46
2023-04-07T12:50:08.726Z,16.59
2023-04-07T12:51:12.437Z,16.65
2023-04-07T12:52:15.418Z,16.30
2023-04-07T12:53:17.990Z,16.17
2023-04-07T12:54:21.483Z,16.19
2023-04-07T12:55:27.034Z,16.12
2023-04-07T12:56:30.707Z,16.02
2023-04-07T12:57:33.480Z,16.16
2023-04-07T12:58:38.750Z,16.07
2023-04-07T12:59:42.152Z,16.09
2023-04-07T13:00:47.565Z,16.05
2023-04-07T13:01:52.340Z,15.99
2023-04-07T13:02:55.835Z,15.92
2023-04-07T13:03:59.444Z,15.65
2023-04-07T13:05:02.380Z,15.94
2023-04-07T13:06:08.743Z,15.99
2023-04-07T13:07:12.072Z,15.84
2023-04-07T13:08:15.402Z,15.92
2023-04-07T13:09:18.918Z,16.04
2023-04-07T13:10:22.750Z,16.16
2023-04-07T13:11:26.240Z,16.21
2023-04-07T13:12:30.360Z,16.26
2023-04-07T13:13:34.049Z,16.28
2023-04-07T13:14:39.702Z,16.38
2023-04-07T13:15:42.666Z,16.10
2023-04-07T13:16:48.712Z,15.99
2023-04-07T13:17:51.841Z,16.12
2023-04-07T13:18:56.462Z,16.16
2023-04-07T13:20:00.862Z,16.13
2023-04-07T13:21:26.342Z,16.24
2023-04-07T13:22:08.703Z,16.26
2023-04-07T13:23:11.017Z,16.35
2023-04-07T13:24:13.406Z,16.59
2023-04-07T13:25:16.182Z,16.82
2023-04-07T13:26:19.592Z,16.65
2023-04-07T13:27:22.903Z,16.53
2023-04-07T13:28:26.290Z,16.28
2023-04-07T13:29:29.792Z,16.23
2023-04-07T13:30:32.781Z,16.52
2023-04-07T13:31:39.217Z,16.58
2023-04-07T13:32:43.694Z,16.77
2023-04-07T13:33:47.477Z,16.78
2023-04-07T13:34:50.048Z,16.60
2023-04-07T13:35:53.560Z,16.51
2023-04-07T13:36:57.032Z,16.61
2023-04-07T13:37:59.803Z,16.71
2023-04-07T13:39:03.113Z,17.08
2023-04-07T13:40:07.302Z,17.16
2023-04-07T13:41:10.227Z,17.13
2023-04-07T13:42:15.497Z,17.17
2023-04-07T13:43:18.517Z,17.27
2023-04-07T13:44:22.100Z,17.10
2023-04-07T13:45:27.822Z,16.65
2023-04-07T13:46:34.901Z,16.39
2023-04-07T13:47:38.402Z,16.60
2023-04-07T13:48:42.719Z,16.41
2023-04-07T13:49:51.314Z,16.46
2023-04-07T13:50:54.981Z,16.69
2023-04-07T13:51:57.692Z,16.80
2023-04-07T13:53:00.366Z,16.24
2023-04-07T13:54:03.666Z,16.39
2023-04-07T13:55:06.883Z,16.45
2023-04-07T13:56:10.050Z,16.62
2023-04-07T13:57:15.127Z,16.61
2023-04-07T13:58:19.703Z,16.61
2023-04-07T13:59:22.869Z,16.51
2023-04-07T14:00:27.008Z,16.54
2023-04-07T14:01:29.693Z,16.54
2023-04-07T14:02:33.850Z,16.50
2023-04-07T14:03:39.199Z,16.59
2023-04-07T14:04:42.742Z,16.53
2023-04-07T14:05:49.957Z,16.62
2023-04-07T14:06:54.523Z,16.78
2023-04-07T14:08:01.522Z,16.86
2023-04-07T14:09:05.793Z,16.90
2023-04-07T14:10:10.725Z,16.84
2023-04-07T14:11:15.209Z,16.75
2023-04-07T14:12:22.697Z,16.81
2023-04-07T14:13:27.159Z,16.57
2023-04-07T14:14:32.410Z,16.64
2023-04-07T14:15:35.938Z,16.58
2023-04-07T14:16:39.235Z,16.40
2023-04-07T14:17:41.498Z,16.34
2023-04-07T14:18:45.199Z,16.62
2023-04-07T14:19:48.700Z,16.77
2023-04-07T14:20:51.901Z,16.60
2023-04-07T14:21:55.375Z,16.61
2023-04-07T14:22:58.779Z,16.44
2023-04-07T14:24:01.986Z,16.38
2023-04-07T14:25:05.698Z,16.28
2023-04-07T14:26:12.427Z,16.12
2023-04-07T14:27:16.659Z,16.22
2023-04-07T14:28:19.979Z,16.53
2023-04-07T14:29:25.139Z,16.21
2023-04-07T14:30:29.698Z,16.08
2023-04-07T14:31:33.290Z,16.11